createdAt,value
2022-10-21T00:01:32.909Z,100908.75
2022-10-21T00:04:02.090Z,100901.75
2022-10-21T00:06:28.585Z,100899.13
2022-10-21T00:08:55.054Z,100892.19
2022-10-21T00:11:21.571Z,100901.63
2022-10-21T00:13:48.036Z,100904.31
2022-10-21T00:16:17.030Z,100909.59
2022-10-21T00:18:47.001Z,100907.72
2022-10-21T00:21:17.249Z,100900.66
2022-10-21T00:23:43.811Z,100902.63
2022-10-21T00:26:11.941Z,100899.13
2022-10-21T00:28:38.421Z,100893.75
2022-10-21T00:31:12.087Z,100888.41
2022-10-21T00:33:38.679Z,100894.59
2022-10-21T00:36:07.570Z,100883.97
2022-10-21T00:38:35.202Z,100888.50
2022-10-21T00:41:02.003Z,100873.66
2022-10-21T00:43:28.580Z,100878.88
2022-10-21T00:45:58.459Z,100875.34
2022-10-21T00:48:36.181Z,100873.59
2022-10-21T00:51:12.509Z,100878.06
2022-10-21T00:53:41.227Z,100871.00
2022-10-21T00:56:15.416Z,100878.13
2022-10-21T00:58:43.111Z,100867.53
2022-10-21T01:01:09.626Z,100874.56
2022-10-21T01:03:36.222Z,100864.13
2022-10-21T01:06:07.383Z,100853.56
2022-10-21T01:08:34.618Z,100843.88
2022-10-21T01:11:01.285Z,100838.63
2022-10-21T01:13:53.992Z,100836.13
2022-10-21T01:16:33.917Z,100830.84
2022-10-21T01:19:33.973Z,100828.19
2022-10-21T01:22:05.325Z,100818.50
2022-10-21T01:25:15.086Z,100816.81
2022-10-21T01:27:44.271Z,100813.28
2022-10-21T01:30:15.043Z,100814.13
2022-10-21T01:33:18.949Z,100806.28
2022-10-21T01:36:06.765Z,100808.91
2022-10-21T01:38:48.499Z,100807.84
2022-10-21T01:41:33.391Z,100811.44
2022-10-21T01:43:59.773Z,100805.41
2022-10-21T01:46:28.461Z,100814.94
2022-10-21T01:49:03.998Z,100810.75
2022-10-21T01:51:30.967Z,100807.28
2022-10-21T01:54:05.116Z,100796.88
2022-10-21T01:56:31.973Z,100794.25
2022-10-21T01:58:59.201Z,100781.97
2022-10-21T02:01:25.965Z,100771.47
2022-10-21T02:03:59.215Z,100771.66
2022-10-21T02:06:27.089Z,100772.28
2022-10-21T02:08:53.616Z,100773.34
2022-10-21T02:11:20.390Z,100769.81
2022-10-21T02:14:04.137Z,100754.19
2022-10-21T02:16:33.260Z,100756.63
2022-10-21T02:19:00.123Z,100751.56
2022-10-21T02:21:28.774Z,100758.38
2022-10-21T02:23:58.248Z,100763.53
2022-10-21T02:26:27.016Z,100766.28
2022-10-21T02:28:55.279Z,100765.41
2022-10-21T02:31:32.316Z,100755.81
2022-10-21T02:34:01.774Z,100744.38
2022-10-21T02:36:49.605Z,100744.25
2022-10-21T02:39:25.744Z,100754.97
2022-10-21T02:41:54.651Z,100756.66
2022-10-21T02:44:21.571Z,100752.47
2022-10-21T02:46:48.314Z,100749.88
2022-10-21T02:49:14.743Z,100743.97
2022-10-21T02:51:41.901Z,100748.88
2022-10-21T02:54:08.352Z,100753.44
2022-10-21T02:56:35.493Z,100760.34
2022-10-21T02:59:02.070Z,100762.06
2022-10-21T03:01:28.653Z,100756.94
2022-10-21T03:03:55.149Z,100751.66
2022-10-21T03:06:21.662Z,100749.13
2022-10-21T03:08:48.110Z,100750.94
2022-10-21T03:11:14.570Z,100751.84
2022-10-21T03:13:41.023Z,100749.09
2022-10-21T03:16:07.957Z,100747.47
2022-10-21T03:18:34.578Z,100748.38
2022-10-21T03:21:01.042Z,100748.38
2022-10-21T03:23:27.526Z,100737.94
2022-10-21T03:25:53.985Z,100731.91
2022-10-21T03:28:20.500Z,100741.41
2022-10-21T03:30:46.945Z,100731.91
2022-10-21T03:33:13.405Z,100727.56
2022-10-21T03:35:39.896Z,100724.09
2022-10-21T03:38:06.371Z,100726.63
2022-10-21T03:40:32.825Z,100729.28
2022-10-21T03:42:59.756Z,100705.72
2022-10-21T03:45:26.821Z,100728.38
2022-10-21T03:47:53.345Z,100722.41
2022-10-21T03:50:23.614Z,100711.91
2022-10-21T03:52:52.822Z,100710.94
2022-10-21T03:55:20.968Z,100705.78
2022-10-21T03:57:48.092Z,100718.00
2022-10-21T04:00:14.928Z,100711.00
2022-10-21T04:02:41.515Z,100702.25
2022-10-21T04:05:08.498Z,100712.69
2022-10-21T04:07:34.998Z,100702.28
2022-10-21T04:10:01.491Z,100699.69
2022-10-21T04:12:27.961Z,100684.00
2022-10-21T04:14:54.384Z,100676.13
2022-10-21T04:17:20.857Z,100678.69
2022-10-21T04:19:47.289Z,100687.44
2022-10-21T04:22:13.827Z,100690.09
2022-10-21T04:24:40.243Z,100681.38
2022-10-21T04:27:06.789Z,100687.44
2022-10-21T04:29:33.237Z,100678.72
2022-10-21T04:31:59.768Z,100663.91
2022-10-21T04:34:26.242Z,100660.47
2022-10-21T04:36:52.819Z,100653.53
2022-10-21T04:39:19.416Z,100644.72
2022-10-21T04:41:45.934Z,100637.72
2022-10-21T04:44:12.380Z,100639.47
2022-10-21T04:46:38.818Z,100641.16
2022-10-21T04:49:05.278Z,100641.16
2022-10-21T04:54:03.145Z,100649.88
2022-10-21T04:56:29.576Z,100644.69
2022-10-21T04:58:56.037Z,100643.84
2022-10-21T05:01:22.551Z,100656.00
2022-10-21T05:03:49.173Z,100657.72
2022-10-21T05:06:15.635Z,100662.09
2022-10-21T05:08:42.127Z,100656.00
2022-10-21T05:11:08.602Z,100650.56
2022-10-21T05:13:35.087Z,100639.34
2022-10-21T05:16:03.080Z,100638.47
2022-10-21T05:18:30.150Z,100642.84
2022-10-21T05:20:56.931Z,100640.25
2022-10-21T05:23:24.386Z,100639.34
2022-10-21T05:25:51.772Z,100630.63
2022-10-21T05:28:21.060Z,100635.09
2022-10-21T05:30:48.053Z,100642.00
2022-10-21T05:33:14.557Z,100641.13
2022-10-21T05:35:41.065Z,100636.72
2022-10-21T05:38:07.653Z,100637.59
2022-10-21T05:40:34.367Z,100639.34
2022-10-21T05:43:00.873Z,100637.63
2022-10-21T05:45:27.653Z,100647.97
2022-10-21T05:47:54.115Z,100638.41
2022-10-21T05:50:20.821Z,100632.31
2022-10-21T05:52:47.282Z,100623.41
2022-10-21T05:55:13.751Z,100627.06
2022-10-21T05:57:40.304Z,100628.84
2022-10-21T06:00:07.798Z,100623.56
2022-10-21T06:02:34.310Z,100626.28
2022-10-21T06:05:00.738Z,100630.50
2022-10-21T06:07:27.308Z,100633.16
2022-10-21T06:09:54.899Z,100633.19
2022-10-21T06:12:22.116Z,100642.81
2022-10-21T06:14:48.620Z,100634.09
2022-10-21T06:17:15.075Z,100644.50
2022-10-21T06:19:41.537Z,100643.75
2022-10-21T06:22:08.120Z,100642.69
2022-10-21T06:24:34.677Z,100635.03
2022-10-21T06:27:01.142Z,100633.38
2022-10-21T06:29:27.850Z,100643.81
2022-10-21T06:31:54.297Z,100636.81
2022-10-21T06:34:21.025Z,100640.28
2022-10-21T06:36:47.461Z,100637.78
2022-10-21T06:39:14.092Z,100634.31
2022-10-21T06:41:40.527Z,100646.47
2022-10-21T06:44:07.029Z,100637.81
2022-10-21T06:46:33.516Z,100640.41
2022-10-21T06:48:59.992Z,100644.75
2022-10-21T06:51:26.460Z,100645.59
2022-10-21T06:53:54.937Z,100635.09
2022-10-21T06:56:22.589Z,100648.97
2022-10-21T06:58:50.078Z,100641.25
2022-10-21T07:01:34.953Z,100641.25
2022-10-21T07:04:07.420Z,100632.56
2022-10-21T07:09:06.866Z,100629.09
2022-10-21T07:11:33.345Z,100640.31
2022-10-21T07:14:00.803Z,100629.94
2022-10-21T07:16:33.032Z,100611.66
2022-10-21T07:18:59.630Z,100623.81
2022-10-21T07:21:27.876Z,100619.50
2022-10-21T07:23:57.862Z,100616.88
2022-10-21T07:26:27.998Z,100621.28
2022-10-21T07:28:55.638Z,100635.25
2022-10-21T07:31:22.180Z,100633.47
2022-10-21T07:33:48.934Z,100630.84
2022-10-21T07:36:21.488Z,100638.72
2022-10-21T07:38:48.962Z,100633.47
2022-10-21T07:41:21.248Z,100627.38
2022-10-21T07:43:48.046Z,100627.44
2022-10-21T07:46:14.869Z,100629.19
2022-10-21T07:48:41.379Z,100637.03
2022-10-21T07:51:10.942Z,100641.41
2022-10-21T07:53:38.101Z,100632.66
2022-10-21T07:56:28.112Z,100637.91
2022-10-21T07:58:54.896Z,100638.78
2022-10-21T08:01:21.674Z,100650.13
2022-10-21T08:03:48.983Z,100647.50
2022-10-21T08:06:17.167Z,100641.38
2022-10-21T08:08:44.834Z,100642.28
2022-10-21T08:11:11.380Z,100641.41
2022-10-21T08:13:39.476Z,100635.25
2022-10-21T08:16:06.670Z,100630.94
2022-10-21T08:18:33.269Z,100631.81
2022-10-21T08:20:59.744Z,100631.81
2022-10-21T08:23:26.521Z,100637.03
2022-10-21T08:25:55.137Z,100633.56
2022-10-21T08:28:22.857Z,100635.28
2022-10-21T08:30:49.360Z,100642.25
2022-10-21T08:33:16.088Z,100637.00
2022-10-21T08:35:42.972Z,100633.50
2022-10-21T08:38:10.357Z,100631.66
2022-10-21T08:40:39.681Z,100636.94
2022-10-21T08:43:10.786Z,100643.88
2022-10-21T08:45:43.943Z,100649.97
2022-10-21T08:48:15.493Z,100636.06
2022-10-21T08:50:52.031Z,100642.09
2022-10-21T08:53:33.679Z,100632.53
2022-10-21T08:56:04.459Z,100632.53
2022-10-21T08:58:31.052Z,100633.44
2022-10-21T09:01:02.848Z,100635.13
2022-10-21T09:03:47.260Z,100636.75
2022-10-21T09:06:23.122Z,100637.69
2022-10-21T09:08:57.350Z,100641.19
2022-10-21T09:11:36.425Z,100635.97
2022-10-21T09:14:23.830Z,100638.44
2022-10-21T09:17:18.354Z,100639.41
2022-10-21T09:19:59.317Z,100633.31
2022-10-21T09:22:36.012Z,100624.47
2022-10-21T09:25:21.378Z,100626.06
2022-10-21T09:27:56.397Z,100617.13
2022-10-21T09:30:25.539Z,100618.13
2022-10-21T09:32:57.824Z,100619.78
2022-10-21T09:35:48.332Z,100623.44
2022-10-21T09:38:22.413Z,100621.56
2022-10-21T09:40:50.510Z,100612.59
2022-10-21T09:43:19.690Z,100609.09
2022-10-21T09:45:46.970Z,100602.81
2022-10-21T09:48:26.273Z,100605.28
2022-10-21T09:50:55.994Z,100599.94
2022-10-21T09:53:34.664Z,100600.34
2022-10-21T09:56:04.403Z,100607.66
2022-10-21T09:58:36.964Z,100599.41
2022-10-21T10:01:05.246Z,100597.00
2022-10-21T10:03:36.092Z,100599.72
2022-10-21T10:06:04.508Z,100602.81
2022-10-21T10:08:44.609Z,100601.13
2022-10-21T10:11:12.921Z,100588.91
2022-10-21T10:13:44.167Z,100589.56
2022-10-21T10:16:14.002Z,100589.09
2022-10-21T10:18:41.185Z,100590.81
2022-10-21T10:21:21.875Z,100595.00
2022-10-21T10:23:55.934Z,100604.66
2022-10-21T10:26:31.621Z,100604.44
2022-10-21T10:29:09.662Z,100602.78
2022-10-21T10:31:36.783Z,100591.19
2022-10-21T10:34:06.739Z,100586.94
2022-10-21T10:36:41.425Z,100582.06
2022-10-21T10:39:19.928Z,100583.00
2022-10-21T10:41:48.660Z,100588.88
2022-10-21T10:44:32.507Z,100587.28
2022-10-21T10:47:01.412Z,100593.84
2022-10-21T10:49:35.166Z,100591.38
2022-10-21T10:52:06.037Z,100593.00
2022-10-21T10:54:32.729Z,100591.88
2022-10-21T10:57:16.424Z,100596.66
2022-10-21T10:59:56.947Z,100592.59
2022-10-21T11:02:38.462Z,100590.53
2022-10-21T11:05:34.124Z,100586.69
2022-10-21T11:08:06.422Z,100587.50
2022-10-21T11:10:39.617Z,100581.13
2022-10-21T11:13:13.396Z,100584.56
2022-10-21T11:16:18.312Z,100589.56
2022-10-21T11:18:50.480Z,100584.88
2022-10-21T11:21:34.244Z,100576.22
2022-10-21T11:24:09.939Z,100588.72
2022-10-21T11:26:49.048Z,100586.88
2022-10-21T11:29:34.928Z,100583.28
2022-10-21T11:32:30.460Z,100582.56
2022-10-21T11:35:34.497Z,100574.19
2022-10-21T11:38:16.220Z,100571.44
2022-10-21T11:41:10.864Z,100569.19
2022-10-21T11:44:11.366Z,100572.63
2022-10-21T11:46:53.016Z,100563.84
2022-10-21T11:49:37.202Z,100554.22
2022-10-21T11:52:25.320Z,100559.31
2022-10-21T11:55:10.492Z,100557.47
2022-10-21T11:57:46.468Z,100553.09
2022-10-21T12:00:21.973Z,100547.13
2022-10-21T12:03:13.604Z,100541.75
2022-10-21T12:06:01.696Z,100541.50
2022-10-21T12:08:35.528Z,100534.22
2022-10-21T12:11:13.588Z,100534.66
2022-10-21T12:13:44.991Z,100543.09
2022-10-21T12:16:15.216Z,100527.16
2022-10-21T12:18:44.737Z,100528.59
2022-10-21T12:21:16.965Z,100522.72
2022-10-21T12:23:44.852Z,100518.75
2022-10-21T12:26:29.201Z,100521.19
2022-10-21T12:29:12.347Z,100524.34
2022-10-21T12:31:51.776Z,100526.66
2022-10-21T12:34:18.434Z,100523.09
2022-10-21T12:36:48.714Z,100519.66
2022-10-21T12:39:33.596Z,100519.44
2022-10-21T12:42:12.529Z,100520.38
2022-10-21T12:44:39.823Z,100517.88
2022-10-21T12:47:24.105Z,100528.63
2022-10-21T12:50:29.839Z,100523.72
2022-10-21T12:53:20.944Z,100518.91
2022-10-21T12:55:53.578Z,100509.44
2022-10-21T12:58:47.694Z,100500.56
2022-10-21T13:01:39.354Z,100511.94
2022-10-21T13:04:31.404Z,100513.19
2022-10-21T13:07:16.356Z,100507.28
2022-10-21T13:10:02.809Z,100508.53
2022-10-21T13:12:31.184Z,100502.72
2022-10-21T13:15:20.310Z,100504.13
2022-10-21T13:17:53.615Z,100500.25
2022-10-21T13:20:20.048Z,100502.78
2022-10-21T13:23:01.782Z,100502.09
2022-10-21T13:25:32.730Z,100496.03
2022-10-21T13:28:14.580Z,100500.81
2022-10-21T13:30:58.530Z,100500.31
2022-10-21T13:33:26.599Z,100503.28
2022-10-21T13:36:01.645Z,100498.63
2022-10-21T13:38:32.761Z,100498.84
2022-10-21T13:41:07.706Z,100489.84
2022-10-21T13:43:34.119Z,100500.44
2022-10-21T13:46:08.044Z,100500.72
2022-10-21T13:48:42.732Z,100501.47
2022-10-21T13:51:25.271Z,100506.75
2022-10-21T13:53:57.037Z,100507.25
2022-10-21T13:56:33.230Z,100498.81
2022-10-21T13:59:00.188Z,100517.13
2022-10-21T14:01:29.814Z,100515.13
2022-10-21T14:04:12.206Z,100532.53
2022-10-21T14:06:43.260Z,100518.81
2022-10-21T14:09:16.980Z,100521.47
2022-10-21T14:11:48.621Z,100522.66
2022-10-21T14:14:16.592Z,100522.81
2022-10-21T14:16:57.001Z,100518.84
2022-10-21T14:19:28.390Z,100520.66
2022-10-21T14:21:56.661Z,100518.16
2022-10-21T14:24:46.390Z,100518.97
2022-10-21T14:27:23.023Z,100520.22
2022-10-21T14:29:49.675Z,100527.59
2022-10-21T14:32:20.596Z,100521.19
2022-10-21T14:35:13.569Z,100513.25
2022-10-21T14:37:44.297Z,100516.19
2022-10-21T14:40:21.729Z,100520.00
2022-10-21T14:42:52.383Z,100520.59
2022-10-21T14:45:28.759Z,100519.91
2022-10-21T14:48:10.829Z,100514.22
2022-10-21T14:50:39.371Z,100517.47
2022-10-21T14:53:20.160Z,100513.72
2022-10-21T14:55:47.597Z,100513.84
2022-10-21T14:58:23.077Z,100506.13
2022-10-21T15:00:58.977Z,100505.91
2022-10-21T15:03:51.217Z,100512.66
2022-10-21T15:06:28.201Z,100498.16
2022-10-21T15:08:57.912Z,100516.19
2022-10-21T15:11:28.908Z,100506.38
2022-10-21T15:14:05.672Z,100512.91
2022-10-21T15:16:32.850Z,100503.78
2022-10-21T15:18:59.552Z,100508.47
2022-10-21T15:21:37.846Z,100500.72
2022-10-21T15:24:04.666Z,100512.16
2022-10-21T15:26:33.880Z,100510.69
2022-10-21T15:29:00.920Z,100514.44
2022-10-21T15:31:29.238Z,100515.50
2022-10-21T15:33:57.267Z,100507.47
2022-10-21T15:36:24.451Z,100506.81
2022-10-21T15:38:50.897Z,100509.72
2022-10-21T15:41:23.641Z,100504.50
2022-10-21T15:44:17.987Z,100507.13
2022-10-21T15:46:49.893Z,100500.41
2022-10-21T15:49:19.422Z,100505.72
2022-10-21T15:51:46.745Z,100503.69
2022-10-21T15:54:13.748Z,100503.00
2022-10-21T15:56:42.179Z,100509.47
2022-10-21T15:59:17.273Z,100511.31
2022-10-21T16:01:43.856Z,100507.84
2022-10-21T16:04:10.271Z,100510.63
2022-10-21T16:06:36.733Z,100508.00
2022-10-21T16:09:03.359Z,100508.94
2022-10-21T16:11:40.788Z,100499.44
2022-10-21T16:14:10.115Z,100501.28
2022-10-21T16:16:38.290Z,100513.66
2022-10-21T16:19:05.214Z,100498.88
2022-10-21T16:21:31.767Z,100510.97
2022-10-21T16:23:58.469Z,100504.75
2022-10-21T16:26:26.945Z,100512.25
2022-10-21T16:28:54.985Z,100512.00
2022-10-21T16:31:21.688Z,100510.41
2022-10-21T16:33:48.164Z,100510.50
2022-10-21T16:36:36.745Z,100510.25
2022-10-21T16:39:12.717Z,100512.50
2022-10-21T16:41:39.299Z,100515.63
2022-10-21T16:44:05.730Z,100521.16
2022-10-21T16:46:35.219Z,100520.09
2022-10-21T16:49:07.899Z,100518.00
2022-10-21T16:51:38.774Z,100517.88
2022-10-21T16:54:05.516Z,100527.00
2022-10-21T16:56:31.970Z,100523.34
2022-10-21T16:58:58.464Z,100522.63
2022-10-21T17:01:30.598Z,100514.66
2022-10-21T17:03:57.112Z,100521.78
2022-10-21T17:06:26.296Z,100525.53
2022-10-21T17:08:55.873Z,100535.53
2022-10-21T17:11:25.465Z,100529.78
2022-10-21T17:13:52.189Z,100529.09
2022-10-21T17:16:20.223Z,100528.53
2022-10-21T17:18:49.626Z,100528.28
2022-10-21T17:21:26.244Z,100527.72
2022-10-21T17:23:55.361Z,100532.84
2022-10-21T17:26:23.337Z,100528.34
2022-10-21T17:28:52.345Z,100524.94
2022-10-21T17:31:22.719Z,100537.41
2022-10-21T17:33:50.798Z,100535.00
2022-10-21T17:36:18.989Z,100532.59
2022-10-21T17:38:46.099Z,100522.09
2022-10-21T17:41:14.317Z,100534.59
2022-10-21T17:43:40.881Z,100526.28
2022-10-21T17:46:07.520Z,100536.13
2022-10-21T17:48:34.452Z,100541.38
2022-10-21T17:51:02.308Z,100540.72
2022-10-21T17:53:30.615Z,100547.00
2022-10-21T17:56:07.621Z,100534.78
2022-10-21T17:58:35.696Z,100536.34
2022-10-21T18:01:08.702Z,100534.91
2022-10-21T18:03:37.730Z,100547.97
2022-10-21T18:06:09.573Z,100534.84
2022-10-21T18:08:37.113Z,100537.47
2022-10-21T18:11:07.862Z,100542.75
2022-10-21T18:13:34.677Z,100538.41
2022-10-21T18:16:10.049Z,100545.13
2022-10-21T18:18:37.295Z,100548.00
2022-10-21T18:21:05.602Z,100548.28
2022-10-21T18:23:32.432Z,100554.19
2022-10-21T18:26:07.574Z,100555.03
2022-10-21T18:28:35.833Z,100554.09
2022-10-21T18:31:03.790Z,100551.53
2022-10-21T18:33:30.784Z,100556.78
2022-10-21T18:35:57.517Z,100548.72
2022-10-21T18:38:24.072Z,100555.91
2022-10-21T18:40:56.464Z,100555.03
2022-10-21T18:43:28.656Z,100552.59
2022-10-21T18:45:55.260Z,100549.09
2022-10-21T18:48:21.861Z,100546.59
2022-10-21T18:50:48.334Z,100550.06
2022-10-21T18:53:15.091Z,100543.03
2022-10-21T18:55:41.822Z,100554.41
2022-10-21T18:58:08.394Z,100553.66
2022-10-21T19:00:35.165Z,100548.25
2022-10-21T19:03:01.862Z,100553.59
2022-10-21T19:05:28.849Z,100554.50
2022-10-21T19:07:55.518Z,100559.03
2022-10-21T19:10:21.976Z,100553.81
2022-10-21T19:12:48.514Z,100561.66
2022-10-21T19:15:15.200Z,100554.59
2022-10-21T19:17:44.054Z,100562.53
2022-10-21T19:20:10.963Z,100562.56
2022-10-21T19:22:38.722Z,100566.81
2022-10-21T19:25:07.268Z,100560.06
2022-10-21T19:27:34.329Z,100563.50
2022-10-21T19:30:01.382Z,100573.34
2022-10-21T19:32:28.281Z,100565.53
2022-10-21T19:34:55.433Z,100581.31
2022-10-21T19:37:21.982Z,100583.13
2022-10-21T19:39:49.024Z,100590.97
2022-10-21T19:42:15.456Z,100591.09
2022-10-21T19:44:41.890Z,100598.13
2022-10-21T19:47:08.339Z,100598.22
2022-10-21T19:49:34.913Z,100608.75
2022-10-21T19:52:03.153Z,100603.63
2022-10-21T19:54:29.633Z,100605.25
2022-10-21T19:56:56.444Z,100610.69
2022-10-21T19:59:23.130Z,100609.78
2022-10-21T20:01:49.686Z,100614.03
2022-10-21T20:04:16.236Z,100608.66
2022-10-21T20:06:42.764Z,100612.13
2022-10-21T20:09:11.675Z,100615.75
2022-10-21T20:11:39.333Z,100614.84
2022-10-21T20:14:06.358Z,100613.78
2022-10-21T20:16:35.550Z,100630.31
2022-10-21T20:19:03.529Z,100627.56
2022-10-21T20:21:31.160Z,100628.31
2022-10-21T20:23:58.577Z,100631.97
2022-10-21T20:26:25.222Z,100631.81
2022-10-21T20:28:52.267Z,100623.03
2022-10-21T20:31:19.087Z,100628.19
2022-10-21T20:33:48.283Z,100623.69
2022-10-21T20:36:29.646Z,100630.84
2022-10-21T20:38:57.414Z,100622.94
2022-10-21T20:41:27.511Z,100621.91
2022-10-21T20:43:54.753Z,100621.19
2022-10-21T20:46:22.988Z,100622.28
2022-10-21T20:48:50.450Z,100621.56
2022-10-21T20:51:25.869Z,100622.50
2022-10-21T20:53:54.671Z,100626.94
2022-10-21T20:56:21.993Z,100626.09
2022-10-21T20:58:48.559Z,100623.16
2022-10-21T21:01:26.346Z,100631.25
2022-10-21T21:03:54.472Z,100620.63
2022-10-21T21:06:21.153Z,100610.09
2022-10-21T21:09:02.854Z,100613.66
2022-10-21T21:11:34.696Z,100614.72
2022-10-21T21:14:01.154Z,100620.56
2022-10-21T21:16:27.770Z,100614.50
2022-10-21T21:19:03.001Z,100618.00
2022-10-21T21:21:30.583Z,100614.28
2022-10-21T21:23:57.686Z,100616.88
2022-10-21T21:26:32.691Z,100618.63
2022-10-21T21:28:59.162Z,100612.44
2022-10-21T21:31:26.655Z,100607.94
2022-10-21T21:33:53.725Z,100618.53
2022-10-21T21:36:21.147Z,100604.53
2022-10-21T21:38:47.880Z,100611.50
2022-10-21T21:41:16.538Z,100609.72
2022-10-21T21:43:47.252Z,100611.47
2022-10-21T21:46:22.488Z,100612.31
2022-10-21T21:49:05.500Z,100608.75
2022-10-21T21:51:36.106Z,100607.00
2022-10-21T21:54:03.628Z,100604.28
2022-10-21T21:56:30.144Z,100607.53
2022-10-21T21:58:58.089Z,100607.34
2022-10-21T22:01:27.055Z,100601.19
2022-10-21T22:03:54.382Z,100604.63
2022-10-21T22:06:23.104Z,100607.44
2022-10-21T22:08:50.728Z,100604.69
2022-10-21T22:11:19.791Z,100600.22
2022-10-21T22:13:46.459Z,100601.22
2022-10-21T22:16:14.845Z,100605.50
2022-10-21T22:18:41.900Z,100603.94
2022-10-21T22:21:11.008Z,100603.25
2022-10-21T22:23:37.867Z,100605.09
2022-10-21T22:26:05.502Z,100603.13
2022-10-21T22:28:32.442Z,100602.00
2022-10-21T22:31:08.173Z,100601.16
2022-10-21T22:33:35.241Z,100596.59
2022-10-21T22:36:02.016Z,100606.28
2022-10-21T22:38:29.712Z,100604.50
2022-10-21T22:40:57.980Z,100613.53
2022-10-21T22:43:26.350Z,100603.03
2022-10-21T22:45:55.244Z,100612.66
2022-10-21T22:48:28.011Z,100615.16
2022-10-21T22:50:54.538Z,100613.50
2022-10-21T22:53:21.034Z,100614.34
2022-10-21T22:55:47.491Z,100618.63
2022-10-21T22:58:21.592Z,100617.56
2022-10-21T23:00:48.686Z,100624.84
2022-10-21T23:03:17.063Z,100622.06
2022-10-21T23:05:44.138Z,100624.72
2022-10-21T23:08:11.598Z,100616.00
2022-10-21T23:10:38.681Z,100618.63
2022-10-21T23:13:06.040Z,100626.56
2022-10-21T23:15:36.262Z,100628.25
2022-10-21T23:18:03.999Z,100629.09
2022-10-21T23:20:30.599Z,100623.81
2022-10-21T23:22:58.045Z,100621.03
2022-10-21T23:25:25.678Z,100620.91
2022-10-21T23:27:52.328Z,100620.91
2022-10-21T23:30:19.259Z,100634.22
2022-10-21T23:32:45.964Z,100623.59
2022-10-21T23:35:14.015Z,100635.78
2022-10-21T23:37:40.821Z,100631.44
2022-10-21T23:40:08.840Z,100628.38
2022-10-21T23:42:38.961Z,100624.34
2022-10-21T23:45:09.266Z,100627.81
2022-10-21T23:47:35.872Z,100622.91
2022-10-21T23:50:02.965Z,100628.13
2022-10-21T23:52:29.454Z,100624.34
2022-10-21T23:54:55.939Z,100625.31
2022-10-21T23:57:22.417Z,100628.00
2022-10-21T23:59:48.913Z,100626.25
